Time;durP1;ratioP1;P1;durP2;ratioP2;P2;SDS_P1;SDS_P2;PMS_P1;PMS_P2;Temp;Humidity;BMP_temperature;BMP_pressure;BME280_temperature;BME280_humidity;BME280_pressure;Samples;Min_cycle;Max_cycle;Signal;HPM_P1;HPM_P2
2023/02/10 00:00:16;;;;;;;31.90;22.30;;;;;;;;;;5022284;28;20272;-51
2023/02/10 00:02:42;;;;;;;32.13;21.53;;;;;;;;;;5013868;28;20272;-51
2023/02/10 00:05:08;;;;;;;31.73;22.03;;;;;;;;;;5021700;28;20178;-51
2023/02/10 00:07:34;;;;;;;30.17;22.20;;;;;;;;;;5014948;28;20513;-52
2023/02/10 00:10:00;;;;;;;28.13;20.77;;;;;;;;;;5022733;28;20292;-51
2023/02/10 00:12:26;;;;;;;28.40;20.80;;;;;;;;;;5023295;28;20255;-51
2023/02/10 00:14:52;;;;;;;27.30;20.17;;;;;;;;;;5016114;28;20635;-51
2023/02/10 00:17:18;;;;;;;28.40;20.43;;;;;;;;;;5028843;28;20228;-51
2023/02/10 00:19:44;;;;;;;30.20;20.30;;;;;;;;;;5026302;28;20182;-51
2023/02/10 00:22:10;;;;;;;36.23;21.07;;;;;;;;;;5026530;28;20572;-52
2023/02/10 00:24:37;;;;;;;32.57;22.13;;;;;;;;;;5025285;28;20544;-52
2023/02/10 00:27:03;;;;;;;32.70;21.77;;;;;;;;;;5017106;28;20170;-52
2023/02/10 00:29:31;;;;;;;30.13;21.77;;;;;;;;;;5016236;28;20197;-51
2023/02/10 00:31:57;;;;;;;31.57;21.73;;;;;;;;;;5019592;28;20178;-52
2023/02/10 00:34:24;;;;;;;33.47;22.37;;;;;;;;;;5022383;28;20203;-52
2023/02/10 00:36:50;;;;;;;30.47;20.60;;;;;;;;;;5015883;28;20202;-51
2023/02/10 00:39:17;;;;;;;30.37;21.30;;;;;;;;;;5016068;28;20170;-51
2023/02/10 00:41:43;;;;;;;29.90;21.80;;;;;;;;;;5022200;28;20400;-51
2023/02/10 00:44:19;;;;;;;35.30;23.20;;;;;;;;;;5032582;28;20277;-51
2023/02/10 00:46:45;;;;;;;27.77;20.17;;;;;;;;;;5020790;28;20721;-53
2023/02/10 00:49:12;;;;;;;32.00;20.97;;;;;;;;;;5017972;28;20238;-52
2023/02/10 00:51:38;;;;;;;26.37;21.33;;;;;;;;;;5020230;28;20209;-51
2023/02/10 00:54:04;;;;;;;34.03;21.97;;;;;;;;;;5014627;28;20533;-51
2023/02/10 00:56:30;;;;;;;32.07;21.57;;;;;;;;;;5026344;28;20202;-53
2023/02/10 00:58:56;;;;;;;29.83;21.60;;;;;;;;;;5026785;28;20197;-52
2023/02/10 01:01:22;;;;;;;31.97;20.87;;;;;;;;;;5017877;28;20272;-52
2023/02/10 01:03:48;;;;;;;31.63;22.67;;;;;;;;;;5021282;28;20225;-52
2023/02/10 01:06:15;;;;;;;29.67;22.33;;;;;;;;;;5028740;28;20224;-52
2023/02/10 01:08:41;;;;;;;33.73;22.03;;;;;;;;;;5022673;28;20209;-52
2023/02/10 01:11:08;;;;;;;32.77;22.57;;;;;;;;;;5022176;28;20175;-52
2023/02/10 01:13:35;;;;;;;31.67;22.47;;;;;;;;;;5026527;28;20699;-52
2023/02/10 01:16:01;;;;;;;31.13;21.73;;;;;;;;;;5024588;28;20185;-52
2023/02/10 01:18:27;;;;;;;37.20;23.03;;;;;;;;;;5018227;28;20202;-52
2023/02/10 01:20:53;;;;;;;34.50;22.57;;;;;;;;;;5021740;28;20174;-52
2023/02/10 01:23:19;;;;;;;33.43;23.83;;;;;;;;;;5028731;28;20170;-52
2023/02/10 01:25:45;;;;;;;33.13;21.83;;;;;;;;;;5026716;28;20178;-52
2023/02/10 01:28:12;;;;;;;33.53;23.57;;;;;;;;;;5032912;28;20193;-52
2023/02/10 01:30:38;;;;;;;31.27;23.33;;;;;;;;;;5014643;28;20186;-52
2023/02/10 01:33:04;;;;;;;35.13;24.07;;;;;;;;;;5022046;28;20637;-51
2023/02/10 01:35:30;;;;;;;32.63;22.97;;;;;;;;;;5014762;28;20202;-52
2023/02/10 01:37:56;;;;;;;30.80;22.53;;;;;;;;;;5011756;28;20174;-52
2023/02/10 01:40:24;;;;;;;33.67;23.57;;;;;;;;;;5024355;28;20169;-52
2023/02/10 01:42:50;;;;;;;32.73;21.47;;;;;;;;;;5014478;28;20174;-52
2023/02/10 01:45:20;;;;;;;31.50;22.97;;;;;;;;;;5018127;28;20553;-52
2023/02/10 01:47:47;;;;;;;32.40;23.87;;;;;;;;;;5017813;28;20178;-52
2023/02/10 01:50:15;;;;;;;34.80;23.40;;;;;;;;;;5014124;28;20205;-52
2023/02/10 01:52:42;;;;;;;27.57;22.03;;;;;;;;;;5012689;28;20638;-52
2023/02/10 01:55:10;;;;;;;36.07;24.43;;;;;;;;;;5021975;28;20182;-52
2023/02/10 01:57:37;;;;;;;34.13;23.63;;;;;;;;;;5030048;28;20769;-52
2023/02/10 02:00:05;;;;;;;31.77;23.20;;;;;;;;;;5024402;28;20293;-51
2023/02/10 02:02:34;;;;;;;26.93;21.37;;;;;;;;;;5021651;28;20217;-52
2023/02/10 02:05:02;;;;;;;30.87;22.07;;;;;;;;;;5020807;28;20183;-52
2023/02/10 02:07:32;;;;;;;36.37;23.33;;;;;;;;;;5017300;28;20174;-52
2023/02/10 02:10:00;;;;;;;33.10;23.67;;;;;;;;;;5025164;28;20202;-52
2023/02/10 02:12:35;;;;;;;33.63;22.90;;;;;;;;;;5021458;28;20275;-52
2023/02/10 02:15:07;;;;;;;31.13;21.93;;;;;;;;;;5015311;28;20181;-52
2023/02/10 02:17:38;;;;;;;31.87;23.17;;;;;;;;;;5017493;28;20297;-52
2023/02/10 02:20:42;;;;;;;28.97;22.73;;;;;;;;;;5016510;28;20182;-52
2023/02/10 02:23:11;;;;;;;35.07;22.33;;;;;;;;;;4965086;28;20207;-52
2023/02/10 02:25:37;;;;;;;37.47;23.13;;;;;;;;;;5007312;28;20252;-52
2023/02/10 02:28:15;;;;;;;31.27;22.40;;;;;;;;;;5017567;28;20167;-52
2023/02/10 02:30:46;;;;;;;31.33;22.60;;;;;;;;;;5014359;28;20205;-53
2023/02/10 02:33:33;;;;;;;32.53;23.23;;;;;;;;;;5017465;28;20166;-53
2023/02/10 02:36:05;;;;;;;31.90;21.10;;;;;;;;;;5019572;28;20175;-52
2023/02/10 02:38:31;;;;;;;29.80;21.53;;;;;;;;;;5023893;28;20223;-51
2023/02/10 02:40:57;;;;;;;28.53;22.17;;;;;;;;;;5029448;28;20212;-52
2023/02/10 02:43:23;;;;;;;28.57;22.10;;;;;;;;;;5031065;28;20260;-52
2023/02/10 02:45:54;;;;;;;37.87;23.30;;;;;;;;;;5026129;28;20182;-52
2023/02/10 02:48:26;;;;;;;31.07;22.20;;;;;;;;;;5016220;28;20188;-52
2023/02/10 02:51:01;;;;;;;29.63;21.37;;;;;;;;;;5020360;28;20645;-52
2023/02/10 02:53:37;;;;;;;31.33;22.03;;;;;;;;;;5021837;28;20170;-52
2023/02/10 02:56:21;;;;;;;29.73;21.53;;;;;;;;;;5026275;28;20202;-52
2023/02/10 02:58:53;;;;;;;31.60;21.33;;;;;;;;;;5028614;28;20178;-52
2023/02/10 03:01:46;;;;;;;37.90;23.43;;;;;;;;;;5019718;28;20536;-51
2023/02/10 03:04:16;;;;;;;30.40;21.83;;;;;;;;;;5032602;28;20217;-52
2023/02/10 03:06:42;;;;;;;34.57;22.00;;;;;;;;;;5024030;28;20166;-52
2023/02/10 03:09:09;;;;;;;30.47;22.23;;;;;;;;;;5022284;28;20202;-52
2023/02/10 03:11:35;;;;;;;33.70;23.13;;;;;;;;;;5031011;28;20657;-52
2023/02/10 03:14:01;;;;;;;28.13;21.80;;;;;;;;;;5022948;28;20292;-52
2023/02/10 03:16:27;;;;;;;30.63;21.13;;;;;;;;;;5024260;28;20178;-52
2023/02/10 03:18:53;;;;;;;29.80;22.27;;;;;;;;;;5021080;28;21018;-52
2023/02/10 03:21:19;;;;;;;30.50;22.33;;;;;;;;;;5025695;28;20181;-52
2023/02/10 03:23:45;;;;;;;33.27;20.23;;;;;;;;;;5025739;28;20190;-52
2023/02/10 03:26:11;;;;;;;28.80;21.87;;;;;;;;;;5025575;28;20708;-52
2023/02/10 03:28:37;;;;;;;26.87;19.73;;;;;;;;;;5027118;28;20263;-52
2023/02/10 03:31:07;;;;;;;28.47;20.97;;;;;;;;;;5032176;28;20835;-52
2023/02/10 03:33:34;;;;;;;30.47;22.07;;;;;;;;;;5032564;28;20438;-52
2023/02/10 03:36:00;;;;;;;28.03;20.80;;;;;;;;;;5019685;28;20593;-51
2023/02/10 03:38:26;;;;;;;30.87;21.77;;;;;;;;;;5026733;28;20192;-52
2023/02/10 03:40:53;;;;;;;32.43;22.50;;;;;;;;;;5016333;28;20182;-52
2023/02/10 03:43:19;;;;;;;28.20;20.77;;;;;;;;;;5026604;28;20189;-52
2023/02/10 03:45:46;;;;;;;29.40;22.03;;;;;;;;;;5022884;28;20178;-52
2023/02/10 03:48:12;;;;;;;29.67;21.10;;;;;;;;;;5033045;28;20189;-51
2023/02/10 03:50:38;;;;;;;26.40;21.57;;;;;;;;;;5032459;28;20711;-52
2023/02/10 03:53:05;;;;;;;30.17;22.07;;;;;;;;;;5023575;28;20167;-52
2023/02/10 03:55:31;;;;;;;28.83;21.53;;;;;;;;;;5021180;28;20194;-52
2023/02/10 03:57:57;;;;;;;31.20;21.13;;;;;;;;;;5024467;28;20248;-51
2023/02/10 04:00:23;;;;;;;27.83;20.30;;;;;;;;;;5022490;28;20213;-52
2023/02/10 04:02:50;;;;;;;27.70;19.83;;;;;;;;;;5019631;28;20701;-52
2023/02/10 04:05:16;;;;;;;27.77;19.57;;;;;;;;;;5024491;28;20200;-52
2023/02/10 04:07:42;;;;;;;27.80;20.57;;;;;;;;;;5023164;28;20277;-52
2023/02/10 04:10:08;;;;;;;26.43;19.10;;;;;;;;;;5021867;28;20198;-51
2023/02/10 04:12:34;;;;;;;26.33;18.73;;;;;;;;;;5035439;28;20193;-52
2023/02/10 04:15:00;;;;;;;26.83;18.47;;;;;;;;;;5021295;28;20313;-52
2023/02/10 04:17:26;;;;;;;26.53;19.43;;;;;;;;;;5015808;28;20269;-52
2023/02/10 04:19:52;;;;;;;28.10;20.30;;;;;;;;;;5026966;28;20308;-51
2023/02/10 04:22:18;;;;;;;26.67;19.53;;;;;;;;;;5025821;28;20228;-52
2023/02/10 04:24:44;;;;;;;24.67;19.57;;;;;;;;;;5033624;28;20181;-52
2023/02/10 04:27:10;;;;;;;27.70;19.90;;;;;;;;;;5027332;28;20190;-53
2023/02/10 04:29:39;;;;;;;25.87;19.97;;;;;;;;;;5014987;28;20194;-52
2023/02/10 04:32:06;;;;;;;28.60;21.37;;;;;;;;;;5020647;28;20210;-52
2023/02/10 04:34:32;;;;;;;27.70;20.33;;;;;;;;;;5025304;28;20186;-51
2023/02/10 04:36:58;;;;;;;28.83;20.33;;;;;;;;;;5019108;28;20163;-52
2023/02/10 04:39:24;;;;;;;27.80;20.20;;;;;;;;;;5020805;28;20231;-52
2023/02/10 04:41:50;;;;;;;28.00;20.63;;;;;;;;;;5027787;28;20218;-52
2023/02/10 04:44:16;;;;;;;29.80;19.73;;;;;;;;;;5014936;28;20637;-52
2023/02/10 04:46:42;;;;;;;27.40;19.90;;;;;;;;;;5023038;28;20185;-52
2023/02/10 04:49:08;;;;;;;31.00;20.80;;;;;;;;;;5019667;28;20225;-52
2023/02/10 04:51:34;;;;;;;30.60;19.87;;;;;;;;;;5030243;28;20181;-52
2023/02/10 04:54:00;;;;;;;23.97;18.70;;;;;;;;;;5021858;28;20178;-52
2023/02/10 04:56:26;;;;;;;27.60;20.13;;;;;;;;;;5021392;28;20209;-52
2023/02/10 04:58:52;;;;;;;26.03;20.47;;;;;;;;;;5022202;28;20166;-51
2023/02/10 05:01:18;;;;;;;30.17;21.57;;;;;;;;;;5026813;28;20177;-52
2023/02/10 05:03:44;;;;;;;31.87;21.30;;;;;;;;;;5015555;28;20741;-54
2023/02/10 05:06:12;;;;;;;31.80;21.53;;;;;;;;;;5022801;28;20182;-54
2023/02/10 05:08:41;;;;;;;29.97;21.93;;;;;;;;;;5017268;28;20709;-54
2023/02/10 05:11:14;;;;;;;31.73;21.90;;;;;;;;;;5015635;28;20265;-54
2023/02/10 05:13:40;;;;;;;29.97;21.00;;;;;;;;;;5021958;28;20194;-54
2023/02/10 05:16:07;;;;;;;28.53;20.60;;;;;;;;;;5021370;28;20537;-54
2023/02/10 05:18:34;;;;;;;35.03;21.90;;;;;;;;;;5016742;28;20194;-54
2023/02/10 05:21:02;;;;;;;29.87;21.83;;;;;;;;;;5020210;28;20178;-54
2023/02/10 05:23:28;;;;;;;30.93;20.93;;;;;;;;;;5019000;28;20174;-54
2023/02/10 05:25:54;;;;;;;32.30;21.43;;;;;;;;;;5019978;28;20170;-54
2023/02/10 05:28:20;;;;;;;31.50;22.17;;;;;;;;;;5021698;28;20177;-54
2023/02/10 05:30:47;;;;;;;31.93;22.47;;;;;;;;;;5014145;28;20187;-54
2023/02/10 05:33:13;;;;;;;31.10;22.03;;;;;;;;;;5024817;28;20244;-54
2023/02/10 05:35:39;;;;;;;29.23;22.03;;;;;;;;;;5018435;28;20193;-54
2023/02/10 05:38:06;;;;;;;29.33;22.07;;;;;;;;;;5019176;28;20197;-53
2023/02/10 05:40:32;;;;;;;31.77;21.50;;;;;;;;;;5014894;28;20193;-54
2023/02/10 05:42:58;;;;;;;28.33;21.70;;;;;;;;;;5020845;28;20182;-54
2023/02/10 05:45:24;;;;;;;30.33;20.77;;;;;;;;;;5019714;28;20201;-54
2023/02/10 05:47:51;;;;;;;32.47;22.87;;;;;;;;;;5017830;28;20220;-54
2023/02/10 05:50:17;;;;;;;34.03;22.97;;;;;;;;;;5027976;28;20190;-54
2023/02/10 05:52:43;;;;;;;30.77;22.70;;;;;;;;;;5022700;28;20185;-54
2023/02/10 05:55:09;;;;;;;31.10;20.47;;;;;;;;;;5016884;28;20210;-54
2023/02/10 05:57:36;;;;;;;31.17;22.43;;;;;;;;;;5011583;28;20181;-54
2023/02/10 06:00:03;;;;;;;35.60;22.90;;;;;;;;;;5014847;28;20509;-54
2023/02/10 06:02:29;;;;;;;33.33;22.87;;;;;;;;;;5017745;28;20214;-54
2023/02/10 06:04:55;;;;;;;32.07;22.20;;;;;;;;;;5013078;28;20209;-54
2023/02/10 06:07:21;;;;;;;36.33;23.03;;;;;;;;;;5015011;28;20224;-54
2023/02/10 06:09:47;;;;;;;32.17;22.30;;;;;;;;;;5023456;28;20205;-54
2023/02/10 06:12:13;;;;;;;34.63;22.43;;;;;;;;;;5018314;28;20181;-54
2023/02/10 06:14:39;;;;;;;33.40;23.03;;;;;;;;;;5019957;28;20186;-54
2023/02/10 06:17:08;;;;;;;33.20;22.97;;;;;;;;;;5010108;28;20178;-54
2023/02/10 06:19:38;;;;;;;29.87;23.00;;;;;;;;;;5024721;28;20190;-54
2023/02/10 06:22:04;;;;;;;32.23;21.70;;;;;;;;;;5009921;28;20186;-53
2023/02/10 06:24:30;;;;;;;34.47;22.63;;;;;;;;;;5013825;28;20189;-54
2023/02/10 06:26:56;;;;;;;31.87;21.63;;;;;;;;;;5027230;28;20188;-54
2023/02/10 06:29:22;;;;;;;31.73;22.80;;;;;;;;;;5012616;28;20194;-53
2023/02/10 06:31:48;;;;;;;31.23;21.73;;;;;;;;;;5010122;28;20637;-54
2023/02/10 06:34:14;;;;;;;30.93;22.67;;;;;;;;;;5012765;28;20185;-54
2023/02/10 06:36:40;;;;;;;32.60;22.23;;;;;;;;;;5012670;28;20577;-54
2023/02/10 06:39:06;;;;;;;34.30;22.40;;;;;;;;;;5027006;28;20192;-54
2023/02/10 06:41:32;;;;;;;35.57;23.07;;;;;;;;;;5030652;28;20185;-54
2023/02/10 06:43:58;;;;;;;33.30;22.27;;;;;;;;;;5020264;28;20185;-54
2023/02/10 06:46:25;;;;;;;34.13;22.83;;;;;;;;;;5015582;28;20599;-54
2023/02/10 06:48:51;;;;;;;32.67;22.60;;;;;;;;;;5025239;28;20202;-54
2023/02/10 06:51:17;;;;;;;31.43;22.27;;;;;;;;;;5019368;28;20215;-54
2023/02/10 06:53:44;;;;;;;31.30;22.27;;;;;;;;;;5008786;28;20226;-53
2023/02/10 06:56:11;;;;;;;31.63;20.60;;;;;;;;;;5009404;28;20221;-54
2023/02/10 06:58:37;;;;;;;35.17;22.47;;;;;;;;;;5024504;28;20174;-54
2023/02/10 07:01:09;;;;;;;31.57;24.00;;;;;;;;;;5025003;28;20189;-54
2023/02/10 07:03:36;;;;;;;29.40;21.20;;;;;;;;;;5018405;28;20281;-54
2023/02/10 07:06:02;;;;;;;33.37;23.27;;;;;;;;;;5023950;28;20196;-54
2023/02/10 07:08:28;;;;;;;32.83;22.43;;;;;;;;;;5019867;28;20220;-54
2023/02/10 07:10:54;;;;;;;32.77;22.67;;;;;;;;;;5021832;28;20196;-54
2023/02/10 07:13:20;;;;;;;31.43;22.73;;;;;;;;;;5019164;28;20167;-54
2023/02/10 07:15:47;;;;;;;34.13;22.57;;;;;;;;;;5028490;28;20182;-54
2023/02/10 07:18:13;;;;;;;33.63;22.17;;;;;;;;;;5020238;28;20229;-54
2023/02/10 07:20:39;;;;;;;30.87;22.67;;;;;;;;;;5026241;28;20252;-54
2023/02/10 07:23:06;;;;;;;31.97;21.47;;;;;;;;;;5032354;28;20543;-54
2023/02/10 07:25:32;;;;;;;32.40;22.37;;;;;;;;;;5017616;28;20186;-53
2023/02/10 07:27:58;;;;;;;32.27;22.70;;;;;;;;;;5014656;28;20914;-54
2023/02/10 07:30:24;;;;;;;29.30;22.27;;;;;;;;;;5018850;28;20209;-54
2023/02/10 07:32:50;;;;;;;30.77;21.60;;;;;;;;;;5023717;28;20173;-54
2023/02/10 07:35:16;;;;;;;30.43;22.30;;;;;;;;;;5021673;28;20186;-54
2023/02/10 07:37:42;;;;;;;31.10;22.30;;;;;;;;;;5023023;28;20170;-54
2023/02/10 07:40:09;;;;;;;33.17;23.20;;;;;;;;;;5018353;28;20186;-54
2023/02/10 07:42:35;;;;;;;34.70;21.67;;;;;;;;;;5026304;28;20189;-54
2023/02/10 07:45:01;;;;;;;34.10;22.80;;;;;;;;;;5020561;28;20182;-54
2023/02/10 07:47:28;;;;;;;31.90;23.33;;;;;;;;;;5013524;28;20177;-54
2023/02/10 07:49:54;;;;;;;29.63;22.20;;;;;;;;;;5025171;28;20213;-55
2023/02/10 07:52:20;;;;;;;30.73;22.63;;;;;;;;;;5020267;28;20171;-54
2023/02/10 07:54:47;;;;;;;32.10;23.13;;;;;;;;;;5020408;28;20201;-54
2023/02/10 07:57:13;;;;;;;32.87;22.37;;;;;;;;;;5014663;28;20446;-54
2023/02/10 07:59:39;;;;;;;35.63;23.23;;;;;;;;;;5028639;28;20194;-54
2023/02/10 08:02:05;;;;;;;34.70;22.93;;;;;;;;;;5031666;28;20233;-54
2023/02/10 08:04:32;;;;;;;29.87;22.03;;;;;;;;;;5028820;28;20194;-53
2023/02/10 08:06:58;;;;;;;33.00;21.77;;;;;;;;;;5029819;28;20170;-54
2023/02/10 08:09:24;;;;;;;32.83;23.27;;;;;;;;;;5029125;28;20233;-53
2023/02/10 08:11:50;;;;;;;34.87;23.03;;;;;;;;;;5029719;28;20573;-54
2023/02/10 08:14:16;;;;;;;29.73;21.83;;;;;;;;;;5029799;28;20689;-54
2023/02/10 08:16:42;;;;;;;29.40;21.60;;;;;;;;;;5029984;28;20202;-54
2023/02/10 08:19:08;;;;;;;32.47;22.80;;;;;;;;;;5029708;28;20260;-54
2023/02/10 08:21:34;;;;;;;36.60;22.37;;;;;;;;;;5031366;28;20178;-54
2023/02/10 08:24:00;;;;;;;31.83;22.70;;;;;;;;;;5031263;28;20201;-54
2023/02/10 08:26:26;;;;;;;31.47;23.97;;;;;;;;;;5030380;28;20181;-54
2023/02/10 08:28:54;;;;;;;30.23;21.80;;;;;;;;;;5030533;28;20198;-54
2023/02/10 08:31:20;;;;;;;34.43;23.13;;;;;;;;;;5030886;28;20160;-54
2023/02/10 08:33:46;;;;;;;30.20;21.17;;;;;;;;;;5029560;28;20188;-54
2023/02/10 08:36:13;;;;;;;32.60;22.93;;;;;;;;;;5029187;28;20297;-53
2023/02/10 08:38:40;;;;;;;31.70;22.57;;;;;;;;;;5030985;28;20185;-54
2023/02/10 08:41:06;;;;;;;32.60;23.47;;;;;;;;;;5022070;28;20589;-54
2023/02/10 08:43:32;;;;;;;30.83;22.17;;;;;;;;;;5030483;28;20352;-54
2023/02/10 08:45:59;;;;;;;35.23;22.07;;;;;;;;;;5030536;28;20174;-54
2023/02/10 08:48:26;;;;;;;32.03;23.67;;;;;;;;;;5030742;28;20178;-54
2023/02/10 08:50:52;;;;;;;33.10;23.50;;;;;;;;;;5030130;28;20201;-54
2023/02/10 08:53:19;;;;;;;32.93;23.07;;;;;;;;;;5030857;28;20201;-54
2023/02/10 08:55:45;;;;;;;38.63;23.13;;;;;;;;;;5029912;28;20208;-54
2023/02/10 08:58:11;;;;;;;31.80;22.97;;;;;;;;;;5030379;28;20525;-54
2023/02/10 09:00:37;;;;;;;32.50;23.43;;;;;;;;;;5030364;28;20187;-54
2023/02/10 09:03:03;;;;;;;35.07;22.43;;;;;;;;;;5030274;28;21242;-53
2023/02/10 09:05:29;;;;;;;35.10;21.70;;;;;;;;;;5029802;28;20182;-54
2023/02/10 09:07:55;;;;;;;34.10;22.30;;;;;;;;;;5030556;28;20221;-54
2023/02/10 09:10:21;;;;;;;31.30;22.20;;;;;;;;;;5030074;28;20197;-54
2023/02/10 09:12:48;;;;;;;33.90;22.67;;;;;;;;;;5029770;28;20196;-54
2023/02/10 09:15:14;;;;;;;29.30;22.20;;;;;;;;;;5030277;28;20282;-54
2023/02/10 09:17:40;;;;;;;32.17;22.60;;;;;;;;;;5030420;28;20572;-54
2023/02/10 09:20:06;;;;;;;29.77;22.37;;;;;;;;;;5029602;28;20192;-55
2023/02/10 09:22:32;;;;;;;34.60;24.00;;;;;;;;;;5030422;28;20178;-54
2023/02/10 09:24:59;;;;;;;31.57;23.17;;;;;;;;;;5029760;28;20205;-54
2023/02/10 09:27:25;;;;;;;33.67;23.90;;;;;;;;;;5029784;28;20652;-54
2023/02/10 09:29:51;;;;;;;35.37;23.80;;;;;;;;;;5030041;28;20597;-54
2023/02/10 09:32:17;;;;;;;30.70;23.20;;;;;;;;;;5030041;28;20202;-54
2023/02/10 09:34:44;;;;;;;32.03;22.87;;;;;;;;;;5029228;28;20217;-53
2023/02/10 09:37:11;;;;;;;31.10;23.77;;;;;;;;;;5030291;28;20257;-54
2023/02/10 09:39:38;;;;;;;37.87;22.73;;;;;;;;;;5020862;28;20207;-54
2023/02/10 09:42:18;;;;;;;33.60;23.40;;;;;;;;;;5028441;28;20278;-54
2023/02/10 09:44:48;;;;;;;34.83;23.57;;;;;;;;;;5023168;28;20243;-54
2023/02/10 09:47:36;;;;;;;35.60;23.63;;;;;;;;;;5014816;28;20186;-54
2023/02/10 09:50:05;;;;;;;35.70;24.53;;;;;;;;;;5018953;28;20198;-55
2023/02/10 09:52:48;;;;;;;36.17;25.60;;;;;;;;;;5018177;28;20225;-54
2023/02/10 09:55:27;;;;;;;34.43;23.87;;;;;;;;;;5021355;28;20207;-54
2023/02/10 09:58:01;;;;;;;34.77;23.63;;;;;;;;;;5016546;28;20372;-54
2023/02/10 10:00:29;;;;;;;36.80;24.27;;;;;;;;;;5018815;28;20167;-54
2023/02/10 10:02:56;;;;;;;38.83;25.67;;;;;;;;;;5015547;28;20703;-54
2023/02/10 10:05:29;;;;;;;37.23;24.90;;;;;;;;;;5019736;28;20225;-55
2023/02/10 10:07:56;;;;;;;35.23;24.20;;;;;;;;;;5018110;28;20185;-54
2023/02/10 10:10:32;;;;;;;36.67;24.93;;;;;;;;;;5028184;28;20356;-54
2023/02/10 10:12:58;;;;;;;33.90;23.20;;;;;;;;;;5029367;28;20750;-54
2023/02/10 10:15:27;;;;;;;37.40;24.83;;;;;;;;;;5026388;28;20213;-54
2023/02/10 10:18:07;;;;;;;35.33;23.47;;;;;;;;;;5028102;28;20189;-54
2023/02/10 10:20:33;;;;;;;36.10;25.23;;;;;;;;;;5029433;28;20222;-54
2023/02/10 10:23:16;;;;;;;33.73;24.27;;;;;;;;;;5029957;28;20185;-53
2023/02/10 10:26:01;;;;;;;34.10;24.17;;;;;;;;;;5029381;28;20316;-54
2023/02/10 10:28:37;;;;;;;33.63;25.47;;;;;;;;;;5025668;28;20193;-54
2023/02/10 10:31:17;;;;;;;37.27;25.40;;;;;;;;;;5027746;28;20678;-54
2023/02/10 10:33:43;;;;;;;34.13;24.40;;;;;;;;;;5020474;28;20705;-54
2023/02/10 10:36:16;;;;;;;36.60;24.80;;;;;;;;;;5016978;28;20186;-53
2023/02/10 10:38:44;;;;;;;36.53;23.03;;;;;;;;;;5018207;28;20174;-54
2023/02/10 10:41:14;;;;;;;34.93;24.13;;;;;;;;;;5026898;28;20646;-54
2023/02/10 10:43:50;;;;;;;35.00;23.43;;;;;;;;;;5007512;28;20273;-54
2023/02/10 10:46:36;;;;;;;30.80;21.83;;;;;;;;;;5020574;28;20182;-54
2023/02/10 10:49:03;;;;;;;38.83;23.63;;;;;;;;;;5020377;28;20657;-54
2023/02/10 10:51:29;;;;;;;36.93;24.27;;;;;;;;;;5020897;28;20599;-54
2023/02/10 10:53:56;;;;;;;36.10;22.90;;;;;;;;;;5027896;28;20232;-54
2023/02/10 10:56:33;;;;;;;32.97;22.33;;;;;;;;;;5025653;28;20661;-54
2023/02/10 10:59:00;;;;;;;35.50;23.50;;;;;;;;;;5027629;28;20255;-54
2023/02/10 11:01:34;;;;;;;37.70;23.23;;;;;;;;;;5021653;28;20178;-54
2023/02/10 11:04:04;;;;;;;34.83;22.33;;;;;;;;;;5030313;28;20266;-54
2023/02/10 11:06:34;;;;;;;33.83;23.97;;;;;;;;;;5019965;28;20194;-54
2023/02/10 11:09:01;;;;;;;36.70;23.23;;;;;;;;;;5031469;28;20210;-54
2023/02/10 11:11:41;;;;;;;34.87;23.33;;;;;;;;;;5018516;28;20533;-54
2023/02/10 11:14:33;;;;;;;33.17;22.10;;;;;;;;;;5024588;28;20217;-54
2023/02/10 11:17:01;;;;;;;35.93;22.63;;;;;;;;;;5017059;28;20182;-54
2023/02/10 11:19:29;;;;;;;38.50;21.80;;;;;;;;;;5026744;28;20186;-54
2023/02/10 11:21:55;;;;;;;35.60;23.30;;;;;;;;;;5015314;28;20194;-54
2023/02/10 11:24:28;;;;;;;35.17;23.10;;;;;;;;;;5031489;28;20615;-54
2023/02/10 11:27:01;;;;;;;34.10;23.80;;;;;;;;;;5018711;28;20190;-54
2023/02/10 11:29:29;;;;;;;36.70;23.13;;;;;;;;;;5024093;28;20239;-54
2023/02/10 11:31:56;;;;;;;34.83;23.57;;;;;;;;;;5017171;28;20252;-54
2023/02/10 11:34:25;;;;;;;35.33;24.03;;;;;;;;;;5025131;28;20191;-54
2023/02/10 11:36:52;;;;;;;33.13;21.60;;;;;;;;;;5014469;28;20171;-55
2023/02/10 11:39:23;;;;;;;34.77;22.33;;;;;;;;;;5024557;28;20178;-54
2023/02/10 11:41:50;;;;;;;31.87;21.63;;;;;;;;;;5017564;28;20184;-54
2023/02/10 11:44:30;;;;;;;31.77;20.60;;;;;;;;;;5020023;28;20183;-55
2023/02/10 11:47:00;;;;;;;29.97;20.77;;;;;;;;;;5016900;28;20178;-55
2023/02/10 11:49:31;;;;;;;32.20;19.43;;;;;;;;;;5025627;28;20214;-55
2023/02/10 11:51:57;;;;;;;33.93;20.00;;;;;;;;;;5014874;28;20167;-55
2023/02/10 11:54:24;;;;;;;29.43;18.33;;;;;;;;;;5019118;28;20166;-55
2023/02/10 11:59:47;;;;;;;27.60;19.30;;;;;;;;;;5018562;28;20285;-54
2023/02/10 12:02:20;;;;;;;28.53;18.70;;;;;;;;;;5020878;28;20312;-55
2023/02/10 12:04:58;;;;;;;26.77;17.80;;;;;;;;;;5026763;28;20645;-55
2023/02/10 12:07:38;;;;;;;28.80;18.67;;;;;;;;;;5021002;28;20605;-55
2023/02/10 12:10:13;;;;;;;27.13;15.93;;;;;;;;;;5016846;28;20719;-56
2023/02/10 12:12:43;;;;;;;24.67;15.67;;;;;;;;;;5011902;28;20174;-55
2023/02/10 12:15:24;;;;;;;21.13;14.60;;;;;;;;;;5019933;28;20167;-55
2023/02/10 12:18:09;;;;;;;30.27;16.27;;;;;;;;;;5019219;28;20670;-55
2023/02/10 12:20:54;;;;;;;24.27;15.03;;;;;;;;;;5022906;28;20572;-55
2023/02/10 12:23:34;;;;;;;24.70;13.47;;;;;;;;;;5025744;28;20197;-55
2023/02/10 12:26:39;;;;;;;25.87;13.57;;;;;;;;;;5015791;28;20181;-55
2023/02/10 12:29:14;;;;;;;16.03;11.83;;;;;;;;;;4951087;28;20299;-55
2023/02/10 12:31:45;;;;;;;17.97;12.50;;;;;;;;;;4939277;29;20575;-55
2023/02/10 12:34:11;;;;;;;18.73;11.40;;;;;;;;;;4978663;28;20197;-55
2023/02/10 12:36:44;;;;;;;23.23;13.13;;;;;;;;;;5036479;28;20178;-55
2023/02/10 12:39:26;;;;;;;20.07;12.33;;;;;;;;;;5022946;28;20189;-55
2023/02/10 12:41:52;;;;;;;17.80;11.87;;;;;;;;;;5022142;28;20634;-55
2023/02/10 12:44:33;;;;;;;21.40;12.33;;;;;;;;;;5031396;28;20212;-55
2023/02/10 12:47:06;;;;;;;19.13;11.80;;;;;;;;;;5032305;28;20166;-55
2023/02/10 12:49:42;;;;;;;21.03;13.70;;;;;;;;;;5031062;28;20213;-56
2023/02/10 12:52:14;;;;;;;19.20;12.60;;;;;;;;;;5031411;28;20158;-55
2023/02/10 12:54:51;;;;;;;18.77;12.87;;;;;;;;;;5015707;28;20290;-55
2023/02/10 12:57:23;;;;;;;19.47;13.30;;;;;;;;;;5025354;28;20194;-55
2023/02/10 12:59:52;;;;;;;20.50;11.60;;;;;;;;;;5017594;28;20186;-55
2023/02/10 13:02:21;;;;;;;21.30;13.10;;;;;;;;;;5028394;28;20329;-55
2023/02/10 13:04:51;;;;;;;18.73;12.47;;;;;;;;;;5023624;28;20186;-55
2023/02/10 13:07:17;;;;;;;18.80;12.37;;;;;;;;;;5019622;28;20601;-56
2023/02/10 13:09:50;;;;;;;22.43;13.50;;;;;;;;;;5027162;28;20260;-55
2023/02/10 13:12:25;;;;;;;19.33;13.83;;;;;;;;;;5031465;28;20213;-55
2023/02/10 13:15:05;;;;;;;24.47;12.87;;;;;;;;;;5021266;28;20688;-55
2023/02/10 13:17:37;;;;;;;19.33;13.30;;;;;;;;;;5024980;28;20192;-55
2023/02/10 13:20:08;;;;;;;23.97;12.47;;;;;;;;;;5023527;28;20422;-55
2023/02/10 13:22:48;;;;;;;22.60;14.47;;;;;;;;;;5022033;28;20645;-54
2023/02/10 13:25:16;;;;;;;23.00;15.00;;;;;;;;;;5004337;28;20240;-55
2023/02/10 13:27:55;;;;;;;20.57;15.20;;;;;;;;;;5014263;28;20178;-55
2023/02/10 13:30:33;;;;;;;24.33;15.33;;;;;;;;;;5019817;28;21218;-55
2023/02/10 13:33:12;;;;;;;22.87;15.43;;;;;;;;;;5017124;28;20236;-55
2023/02/10 13:35:41;;;;;;;20.97;15.50;;;;;;;;;;5012319;28;20237;-55
2023/02/10 13:38:08;;;;;;;24.33;15.90;;;;;;;;;;5037347;28;20798;-55
2023/02/10 13:43:40;;;;;;;20.77;14.80;;;;;;;;;;5011575;28;20657;-55
2023/02/10 13:46:06;;;;;;;23.03;16.07;;;;;;;;;;5019320;28;20231;-54
2023/02/10 13:48:34;;;;;;;24.87;15.63;;;;;;;;;;5020005;28;20269;-54
2023/02/10 13:51:02;;;;;;;21.93;15.67;;;;;;;;;;5021203;28;20199;-55
2023/02/10 13:53:38;;;;;;;25.80;15.40;;;;;;;;;;5023188;28;20270;-55
2023/02/10 13:56:19;;;;;;;24.90;15.57;;;;;;;;;;5017362;28;20654;-55
2023/02/10 13:58:54;;;;;;;20.43;14.47;;;;;;;;;;5013545;28;20179;-55
2023/02/10 14:01:37;;;;;;;22.50;16.47;;;;;;;;;;5018691;28;20510;-55
2023/02/10 14:04:05;;;;;;;22.50;15.33;;;;;;;;;;5020742;28;20804;-55
2023/02/10 14:06:36;;;;;;;20.47;15.60;;;;;;;;;;5025382;28;20194;-55
2023/02/10 14:09:03;;;;;;;27.37;16.60;;;;;;;;;;5026863;28;20206;-55
2023/02/10 14:11:40;;;;;;;23.23;14.47;;;;;;;;;;5016304;28;20197;-55
2023/02/10 14:14:20;;;;;;;22.00;16.20;;;;;;;;;;5020682;28;20197;-54
2023/02/10 14:16:47;;;;;;;21.37;16.23;;;;;;;;;;5023134;28;21734;-55
2023/02/10 14:19:24;;;;;;;22.57;16.90;;;;;;;;;;5022327;28;20333;-55
2023/02/10 14:21:51;;;;;;;22.23;16.33;;;;;;;;;;5022300;28;20198;-55
2023/02/10 14:24:44;;;;;;;24.30;16.30;;;;;;;;;;5016420;28;20795;-55
2023/02/10 14:27:12;;;;;;;18.60;14.37;;;;;;;;;;5017997;28;20193;-55
2023/02/10 14:29:40;;;;;;;22.90;15.80;;;;;;;;;;5018667;28;20685;-55
2023/02/10 14:32:06;;;;;;;21.37;15.87;;;;;;;;;;5022391;28;20182;-55